메인 페이지
METAR-TAF:

METAR-TAF

공항 :

매홍손, 타이

위도: 19-18N, 경도: 097-50E, 고도: 267m

현재 날씨관측

예보는 26분 전, 00:00시(UTC)에 발표되었습니다.
무풍
온도 27°C
습도 84%
기압 1007 hPa
시정: 9000m
고도 1500ft 상공 구름 조금
고도 2500ft 상공 구름 많음

METAR: VTCH 290000Z 00000KT 9000 FEW015 BKN025 27/24 Q1007 NOSIG

시각: 07:26 (00:26 UTC)

예보

예보는 1 시간 26분 전, 23:00시(UTC)에 발표되었습니다.
예보 대상 시간: 29일 00시부터 29일 24시까지 (UTC)
남남서5kt
시정 10km 이상
고도 2500ft 상공 구름 보통
일시적
29일 07시부터 29일 13시까지 (UTC)
고도 2000ft 상공 구름 조금, 적란운.
고도 2500ft 상공 구름 많음
뇌우, 약한비,

TAF: VTCH 282300Z 2900/2924 20005KT 9999 SCT025 TEMPO 2907/2913 -TSRA FEW020CB BKN025

4,000개 이상의 공항 관측 자료 및 예보 (METAR 및 TAF 보고).

지도상에서 검색 가능한 기상관측소가 노란 점과 빨간 점으로 표시되어 있습니다.

기상관측소 명을 보려면 표시 위로 마우스를 이동하세요.

날씨 관측과 예보를 보려면 클릭하세요.

지도 변경 : 확대하려면 엑스 표시가 있는 녹색 버튼, 축소하려면 빼기 표시가 있는 녹색 버튼, 다음 페이지의 지도를 보려면 녹색 화살표를 클릭하세요.


METAR-TAF: